Time;durP1;ratioP1;P1;durP2;ratioP2;P2;SDS_P1;SDS_P2;PMS_P1;PMS_P2;Temp;Humidity;BMP_temperature;BMP_pressure;BME280_temperature;BME280_humidity;BME280_pressure;Samples;Min_cycle;Max_cycle;Signal;HPM_P1;HPM_P2
2021/03/17 00:02:13;;;;;;;17.65;3.77;;;;;;;9.11;100.00;103295.45;1749364;78;936862;-73
2021/03/17 00:04:42;;;;;;;18.97;4.33;;;;;;;9.11;100.00;103298.23;1760609;78;934743;-72
2021/03/17 00:07:14;;;;;;;19.00;4.33;;;;;;;9.09;100.00;103309.23;1749352;78;935467;-73
2021/03/17 00:09:43;;;;;;;18.73;3.87;;;;;;;9.11;100.00;103301.00;1760687;78;934686;-73
2021/03/17 00:12:13;;;;;;;27.03;6.07;;;;;;;9.15;100.00;103300.06;1749292;78;935629;-73
2021/03/17 00:14:43;;;;;;;17.57;4.47;;;;;;;9.06;100.00;103300.83;1760863;78;934806;-73
2021/03/17 00:17:13;;;;;;;16.43;4.67;;;;;;;9.08;100.00;103305.61;1749281;78;936805;-73
2021/03/17 00:19:43;;;;;;;22.17;4.23;;;;;;;9.05;100.00;103310.20;1760653;78;934649;-73
2021/03/17 00:22:13;;;;;;;18.75;4.55;;;;;;;9.03;100.00;103313.70;1749125;78;936578;-73
2021/03/17 00:24:42;;;;;;;19.57;4.10;;;;;;;9.01;100.00;103316.39;1760721;78;934865;-73
2021/03/17 00:27:12;;;;;;;15.72;4.28;;;;;;;8.92;100.00;103317.14;1749140;78;936655;-73
2021/03/17 00:29:42;;;;;;;17.73;3.70;;;;;;;8.90;100.00;103312.33;1760850;78;934939;-72
2021/03/17 00:32:12;;;;;;;19.93;5.20;;;;;;;8.95;100.00;103310.30;1749265;78;936708;-72
2021/03/17 00:34:42;;;;;;;21.23;4.73;;;;;;;8.91;100.00;103308.50;1760700;78;935101;-72
2021/03/17 00:37:11;;;;;;;14.75;3.52;;;;;;;8.85;100.00;103320.99;1749296;78;936613;-72
2021/03/17 00:39:41;;;;;;;20.43;4.73;;;;;;;8.83;100.00;103315.66;1760701;78;934756;-72
2021/03/17 00:42:11;;;;;;;21.90;4.80;;;;;;;8.82;100.00;103319.48;1749248;78;936832;-72
2021/03/17 00:44:41;;;;;;;25.50;4.97;;;;;;;8.95;100.00;103320.86;1760687;78;934604;-72
2021/03/17 00:47:12;;;;;;;14.25;4.05;;;;;;;8.95;100.00;103310.30;1749120;78;936675;-72
2021/03/17 00:49:42;;;;;;;16.93;4.07;;;;;;;8.99;100.00;103319.37;1760719;78;934621;-71
2021/03/17 00:52:11;;;;;;;21.10;4.05;;;;;;;8.95;100.00;103322.25;1749135;78;936520;-72
2021/03/17 00:54:41;;;;;;;23.30;4.57;;;;;;;8.66;100.00;103324.92;1760669;78;934717;-72
2021/03/17 00:57:11;;;;;;;23.18;4.50;;;;;;;8.66;100.00;103324.92;1749174;78;936778;-72
2021/03/17 00:59:41;;;;;;;21.67;3.87;;;;;;;8.86;100.00;103324.05;1760762;78;934675;-72
2021/03/17 01:02:11;;;;;;;13.48;3.60;;;;;;;8.90;100.00;103329.53;1749110;78;936650;-72
2021/03/17 01:04:40;;;;;;;21.83;4.10;;;;;;;8.85;100.00;103321.84;1760792;78;934813;-72
2021/03/17 01:07:12;;;;;;;21.17;4.50;;;;;;;8.87;100.00;103323.86;1749344;78;936702;-72
2021/03/17 01:09:42;;;;;;;23.10;4.85;;;;;;;8.82;100.00;103334.72;1760548;78;934681;-72
2021/03/17 01:12:13;;;;;;;21.77;4.90;;;;;;;8.87;100.00;103336.86;1749459;76;936559;-72
2021/03/17 01:14:43;;;;;;;21.00;4.00;;;;;;;8.77;100.00;103337.27;1761056;78;934766;-72
2021/03/17 01:17:13;;;;;;;17.05;4.05;;;;;;;8.66;100.00;103340.16;1749634;78;936658;-72
2021/03/17 01:19:43;;;;;;;17.10;4.10;;;;;;;8.65;100.00;103335.68;1760979;78;934878;-72
2021/03/17 01:22:13;;;;;;;22.20;4.67;;;;;;;8.77;100.00;103335.89;1749516;76;936700;-72
2021/03/17 01:24:43;;;;;;;18.73;4.13;;;;;;;8.71;100.00;103342.83;1760956;78;934844;-73
2021/03/17 01:27:13;;;;;;;17.70;4.20;;;;;;;8.63;100.00;103337.83;1749745;78;936499;-73
2021/03/17 01:29:43;;;;;;;14.80;3.97;;;;;;;8.68;100.00;103340.78;1761008;78;934693;-72
2021/03/17 01:32:13;;;;;;;17.60;4.57;;;;;;;8.69;100.00;103340.26;1757134;78;936704;-73
2021/03/17 01:34:43;;;;;;;17.70;4.50;;;;;;;8.62;100.00;103334.73;1760720;78;934608;-72
2021/03/17 01:37:13;;;;;;;21.62;3.95;;;;;;;8.60;100.00;103341.00;1749456;78;936578;-72
2021/03/17 01:39:43;;;;;;;23.47;5.45;;;;;;;8.57;100.00;103336.42;1760777;78;934728;-72
2021/03/17 01:42:13;;;;;;;18.37;5.28;;;;;;;8.60;100.00;103333.25;1749431;78;936495;-72
2021/03/17 01:44:43;;;;;;;16.13;4.07;;;;;;;8.63;100.00;103339.73;1761062;78;934909;-72
2021/03/17 01:47:12;;;;;;;19.80;4.22;;;;;;;8.61;100.00;103334.40;1749512;78;936706;-72
2021/03/17 01:49:42;;;;;;;17.63;3.97;;;;;;;8.63;100.00;103338.36;1761021;78;934718;-72
2021/03/17 01:52:12;;;;;;;16.73;3.45;;;;;;;8.00;100.00;103344.66;1757339;77;936440;-72
2021/03/17 01:54:42;;;;;;;21.93;4.13;;;;;;;7.82;100.00;103351.83;1764322;77;934975;-72
2021/03/17 01:57:14;;;;;;;17.93;3.57;;;;;;;8.26;100.00;103345.83;1748812;78;936475;-72
2021/03/17 01:59:43;;;;;;;16.17;4.03;;;;;;;8.28;100.00;103346.45;1761071;78;934722;-71
2021/03/17 02:02:15;;;;;;;17.52;4.45;;;;;;;8.05;100.00;103349.05;1749427;78;936960;-71
2021/03/17 02:04:45;;;;;;;18.23;3.97;;;;;;;7.95;100.00;103348.59;1761315;78;934677;-72
2021/03/17 02:07:15;;;;;;;15.37;4.00;;;;;;;8.34;100.00;103338.73;1749305;77;936519;-71
2021/03/17 02:09:44;;;;;;;20.20;4.23;;;;;;;8.37;100.00;103341.08;1760902;78;934677;-71
2021/03/17 02:12:21;;;;;;;20.43;4.40;;;;;;;8.50;100.00;103340.58;1749560;78;936551;-71
2021/03/17 02:15:00;;;;;;;15.93;3.80;;;;;;;8.27;100.00;103340.06;1760706;78;934667;-71
2021/03/17 02:17:32;;;;;;;21.07;3.97;;;;;;;8.47;100.00;103342.92;1760812;78;936716;-71
2021/03/17 02:20:39;;;;;;;16.07;4.00;;;;;;;8.40;100.00;103340.65;1749456;78;936597;-72
2021/03/17 02:23:17;;;;;;;21.10;4.42;;;;;;;8.38;100.00;103340.88;1749306;78;936458;-72
2021/03/17 02:26:18;;;;;;;20.30;4.20;;;;;;;8.43;100.00;103336.09;1760971;78;934640;-72
2021/03/17 02:29:01;;;;;;;14.80;3.93;;;;;;;8.10;100.00;103338.20;1760933;78;934699;-72
2021/03/17 02:31:56;;;;;;;16.97;4.13;;;;;;;7.84;100.00;103342.78;1760607;78;936619;-72
2021/03/17 02:34:29;;;;;;;15.70;4.47;;;;;;;7.50;100.00;103344.53;1760876;78;936567;-71
2021/03/17 02:37:01;;;;;;;14.80;3.50;;;;;;;7.97;100.00;103339.54;1748572;76;936783;-72
2021/03/17 02:39:35;;;;;;;18.53;4.03;;;;;;;7.77;100.00;103338.61;1760955;78;936561;-72
2021/03/17 02:42:08;;;;;;;15.32;3.92;;;;;;;7.91;100.00;103341.77;1749531;77;946366;-71
2021/03/17 02:44:42;;;;;;;18.33;4.00;;;;;;;7.68;100.00;103344.85;1760770;78;936837;-72
2021/03/17 02:47:13;;;;;;;23.17;4.20;;;;;;;8.16;100.00;103331.84;1749822;77;936560;-71
2021/03/17 02:49:47;;;;;;;18.40;4.10;;;;;;;8.19;100.00;103336.95;1760681;77;934552;-71
2021/03/17 02:52:17;;;;;;;20.40;4.10;;;;;;;8.23;100.00;103327.17;1749398;78;937044;-71
2021/03/17 02:54:50;;;;;;;19.33;3.97;;;;;;;8.28;100.00;103322.91;1760994;78;934743;-72
2021/03/17 02:57:22;;;;;;;18.27;4.23;;;;;;;8.14;100.00;103317.87;1749472;78;936597;-71
2021/03/17 02:59:55;;;;;;;18.00;4.60;;;;;;;8.29;100.00;103317.21;1760899;77;934657;-72
2021/03/17 03:02:26;;;;;;;19.83;4.43;;;;;;;8.15;100.00;103316.81;1753532;79;936643;-72
2021/03/17 03:04:57;;;;;;;21.50;6.13;;;;;;;8.12;100.00;103317.24;1746671;78;936508;-73
2021/03/17 03:07:28;;;;;;;21.20;5.17;;;;;;;8.16;100.00;103311.61;1762978;78;936623;-72
2021/03/17 03:09:59;;;;;;;20.33;5.27;;;;;;;8.19;100.00;103316.72;1748964;78;936857;-72
2021/03/17 03:12:31;;;;;;;15.40;4.73;;;;;;;8.18;100.00;103315.86;1760756;78;936586;-72
2021/03/17 03:15:02;;;;;;;17.00;4.00;;;;;;;8.12;100.00;103316.72;1749437;78;936680;-72
2021/03/17 03:17:33;;;;;;;21.00;4.50;;;;;;;8.06;100.00;103313.91;1754948;78;936568;-72
2021/03/17 03:20:06;;;;;;;23.57;5.47;;;;;;;8.07;100.00;103317.87;1743547;78;936457;-72
2021/03/17 03:22:55;;;;;;;21.57;4.63;;;;;;;8.11;100.00;103307.23;1703989;82;934773;-72
2021/03/17 03:25:26;;;;;;;21.37;4.73;;;;;;;8.06;100.00;103306.47;1701678;80;936541;-72
2021/03/17 03:27:57;;;;;;;21.45;4.05;;;;;;;8.02;100.00;103312.62;1633604;85;936691;-73
2021/03/17 03:30:29;;;;;;;20.23;4.40;;;;;;;8.08;100.00;103317.34;1708707;82;936859;-72
2021/03/17 03:32:58;;;;;;;15.77;4.20;;;;;;;8.06;100.00;103321.69;1697558;82;936727;-72
2021/03/17 03:35:28;;;;;;;17.13;4.07;;;;;;;7.82;100.00;103325.55;1709057;82;936675;-72
2021/03/17 03:37:58;;;;;;;18.40;4.37;;;;;;;8.00;100.00;103322.51;1697664;82;936977;-73
2021/03/17 03:40:28;;;;;;;15.83;4.00;;;;;;;7.92;100.00;103324.61;1707950;82;936727;-72
2021/03/17 03:42:58;;;;;;;15.80;3.90;;;;;;;7.93;100.00;103327.17;1697818;82;936661;-72
2021/03/17 03:45:29;;;;;;;19.13;4.33;;;;;;;8.02;100.00;103328.70;1708527;82;936616;-72
2021/03/17 03:47:59;;;;;;;18.20;4.07;;;;;;;7.98;100.00;103327.41;1697411;82;936596;-72
2021/03/17 03:50:31;;;;;;;21.07;4.53;;;;;;;7.93;100.00;103330.47;1720605;80;936522;-72
2021/03/17 03:53:08;;;;;;;17.77;4.40;;;;;;;8.01;100.00;103327.52;1756624;79;936631;-73
2021/03/17 03:55:44;;;;;;;24.47;4.30;;;;;;;8.02;100.00;103328.70;1734802;80;936620;-72
2021/03/17 03:58:17;;;;;;;18.80;4.58;;;;;;;7.95;100.00;103331.98;1737534;79;936670;-72
2021/03/17 04:00:47;;;;;;;19.00;4.40;;;;;;;7.95;100.00;103338.91;1754611;80;934477;-72
2021/03/17 04:03:19;;;;;;;21.13;4.00;;;;;;;7.92;100.00;103333.77;1743167;80;936628;-72
2021/03/17 04:05:52;;;;;;;18.17;3.93;;;;;;;7.87;100.00;103335.47;1755101;80;934753;-71
2021/03/17 04:08:25;;;;;;;20.63;4.73;;;;;;;7.86;100.00;103337.91;1754805;78;936621;-72
2021/03/17 04:10:58;;;;;;;18.13;4.10;;;;;;;7.84;100.00;103336.72;1755051;80;934665;-72
2021/03/17 04:13:31;;;;;;;18.13;4.13;;;;;;;7.82;100.00;103343.53;1755023;80;936780;-71
2021/03/17 04:16:01;;;;;;;16.03;3.93;;;;;;;7.74;100.00;103349.55;1742842;80;936785;-72
2021/03/17 04:18:34;;;;;;;22.17;4.80;;;;;;;7.79;100.00;103352.55;1755031;80;936655;-72
2021/03/17 04:21:08;;;;;;;21.63;5.77;;;;;;;7.69;100.00;103344.33;1743652;80;935757;-72
2021/03/17 04:23:41;;;;;;;21.57;4.40;;;;;;;7.63;100.00;103343.22;1754870;80;936561;-71
2021/03/17 04:26:12;;;;;;;15.90;4.40;;;;;;;7.67;100.00;103350.58;1743051;80;936602;-72
2021/03/17 04:28:45;;;;;;;16.47;4.07;;;;;;;7.66;100.00;103343.33;1755543;80;934778;-72
2021/03/17 04:31:17;;;;;;;18.33;4.10;;;;;;;7.57;100.00;103335.73;1743422;79;936514;-72
2021/03/17 04:33:48;;;;;;;13.47;4.27;;;;;;;7.59;100.00;103348.84;1755471;80;934764;-72
2021/03/17 04:36:19;;;;;;;16.00;4.30;;;;;;;7.56;100.00;103356.70;1741894;79;936788;-72
2021/03/17 04:38:50;;;;;;;18.70;4.80;;;;;;;7.59;100.00;103360.43;1755152;80;934717;-72
2021/03/17 04:41:21;;;;;;;20.17;4.90;;;;;;;7.63;100.00;103369.50;1755498;80;936793;-71
2021/03/17 04:43:52;;;;;;;20.87;5.20;;;;;;;7.66;100.00;103375.14;1754981;80;934858;-72
2021/03/17 04:46:22;;;;;;;26.45;5.05;;;;;;;7.58;100.00;103384.47;1755327;79;936706;-72
2021/03/17 04:48:54;;;;;;;23.10;4.87;;;;;;;7.65;100.00;103390.91;1755048;80;934940;-72
2021/03/17 04:51:25;;;;;;;17.47;4.57;;;;;;;7.67;100.00;103386.55;1755474;80;936698;-72
2021/03/17 04:53:56;;;;;;;22.63;4.73;;;;;;;7.64;100.00;103388.34;1750143;78;936558;-73
2021/03/17 04:56:28;;;;;;;26.27;5.67;;;;;;;7.70;100.00;103391.13;1749749;78;936711;-72
2021/03/17 04:59:01;;;;;;;17.93;4.13;;;;;;;7.70;100.00;103385.59;1744088;79;936683;-72
2021/03/17 05:01:33;;;;;;;20.03;5.13;;;;;;;7.68;100.00;103375.80;1743831;80;936618;-72
2021/03/17 05:04:04;;;;;;;21.85;5.90;;;;;;;7.59;100.00;103377.03;1743449;80;936469;-72
2021/03/17 05:06:36;;;;;;;19.80;4.95;;;;;;;7.53;100.00;103380.62;1755250;79;936486;-72
2021/03/17 05:09:08;;;;;;;22.23;5.10;;;;;;;7.54;100.00;103382.31;1743601;80;936546;-72
2021/03/17 05:11:39;;;;;;;23.67;4.73;;;;;;;7.45;100.00;103383.53;1755408;80;936122;-72
2021/03/17 05:14:09;;;;;;;22.93;4.90;;;;;;;7.40;100.00;103381.92;1743612;79;936653;-72
2021/03/17 05:16:40;;;;;;;22.00;5.43;;;;;;;7.46;100.00;103379.70;1755285;80;936568;-72
2021/03/17 05:19:11;;;;;;;23.15;5.70;;;;;;;7.45;100.00;103376.61;1743704;79;936553;-72
2021/03/17 05:21:42;;;;;;;21.97;5.70;;;;;;;7.42;100.00;103380.66;1755174;80;934838;-73
2021/03/17 05:24:15;;;;;;;19.63;5.63;;;;;;;7.40;100.00;103384.69;1743721;80;936666;-73
2021/03/17 05:26:47;;;;;;;27.87;6.23;;;;;;;7.30;100.00;103376.22;1754005;80;934658;-73
2021/03/17 05:29:19;;;;;;;21.13;5.80;;;;;;;7.30;100.00;103376.22;1743598;79;937010;-72
2021/03/17 05:31:50;;;;;;;19.97;5.20;;;;;;;7.38;100.00;103386.26;1755153;79;934966;-72
2021/03/17 05:34:19;;;;;;;21.53;4.93;;;;;;;7.31;100.00;103382.08;1743522;80;936530;-72
2021/03/17 05:36:50;;;;;;;25.37;5.53;;;;;;;7.31;100.00;103389.00;1755203;79;934729;-72
2021/03/17 05:39:20;;;;;;;24.77;5.87;;;;;;;7.27;100.00;103390.42;1742877;80;986592;-72
2021/03/17 05:41:50;;;;;;;22.10;5.73;;;;;;;7.28;100.00;103396.28;1754982;80;934812;-72
2021/03/17 05:44:20;;;;;;;18.40;5.07;;;;;;;7.25;100.00;103388.93;1743678;79;936753;-72
2021/03/17 05:46:51;;;;;;;25.23;5.30;;;;;;;7.28;100.00;103398.19;1755298;79;934861;-72
2021/03/17 05:49:22;;;;;;;22.63;6.57;;;;;;;7.21;100.00;103400.06;1755129;80;935828;-72
2021/03/17 05:51:52;;;;;;;23.37;5.30;;;;;;;7.27;100.00;103384.89;1754842;79;934641;-72
2021/03/17 05:54:22;;;;;;;25.10;5.37;;;;;;;7.16;100.00;103382.70;1755160;80;936529;-72
2021/03/17 05:56:53;;;;;;;31.20;5.60;;;;;;;7.15;100.00;103398.95;1754578;78;934787;-72
2021/03/17 05:59:24;;;;;;;23.10;5.47;;;;;;;7.16;100.00;103394.28;1755203;80;936952;-72
2021/03/17 06:01:54;;;;;;;17.73;5.23;;;;;;;7.16;100.00;103391.52;1754992;79;934631;-72
2021/03/17 06:04:25;;;;;;;23.83;5.47;;;;;;;7.16;100.00;103388.75;1754988;79;936612;-72
2021/03/17 06:06:59;;;;;;;22.27;5.03;;;;;;;7.15;100.00;103386.51;1750532;79;936695;-73
2021/03/17 06:09:29;;;;;;;23.50;5.37;;;;;;;6.96;100.00;103383.59;1768250;79;936692;-73
2021/03/17 06:12:01;;;;;;;17.83;5.03;;;;;;;7.08;100.00;103383.38;1747405;78;936761;-73
2021/03/17 06:14:33;;;;;;;22.10;5.40;;;;;;;7.02;100.00;103384.16;1755136;80;936677;-73
2021/03/17 06:17:07;;;;;;;20.50;5.03;;;;;;;7.03;100.00;103388.64;1743490;80;936723;-73
2021/03/17 06:19:39;;;;;;;19.30;5.63;;;;;;;7.09;100.00;103374.89;1754522;79;936539;-72
2021/03/17 06:22:10;;;;;;;22.45;5.75;;;;;;;7.00;100.00;103376.61;1743440;79;936657;-73
2021/03/17 06:24:41;;;;;;;19.90;5.73;;;;;;;7.04;100.00;103382.06;1755293;80;936481;-73
2021/03/17 06:27:13;;;;;;;23.63;5.80;;;;;;;7.04;100.00;103376.02;1743615;79;936608;-73
2021/03/17 06:29:43;;;;;;;21.33;5.50;;;;;;;6.94;100.00;103371.87;1755164;80;934651;-73
2021/03/17 06:32:13;;;;;;;23.42;6.47;;;;;;;6.88;100.00;103369.41;1743657;79;936660;-73
2021/03/17 06:34:48;;;;;;;25.27;5.60;;;;;;;6.96;100.00;103369.25;1755131;79;934434;-73
2021/03/17 06:37:18;;;;;;;19.93;5.40;;;;;;;6.97;100.00;103365.97;1743612;80;936763;-73
2021/03/17 06:39:48;;;;;;;18.37;5.57;;;;;;;6.84;100.00;103368.09;1755060;80;934649;-72
2021/03/17 06:42:18;;;;;;;21.60;4.83;;;;;;;6.92;100.00;103367.09;1743521;79;936688;-72
2021/03/17 06:44:56;;;;;;;19.83;4.97;;;;;;;6.85;100.00;103367.88;1755344;80;934656;-72
2021/03/17 06:47:26;;;;;;;19.33;5.77;;;;;;;6.85;100.00;103372.02;1755050;79;937479;-72
2021/03/17 06:49:56;;;;;;;20.27;4.97;;;;;;;6.93;100.00;103371.57;1743542;79;936491;-74
2021/03/17 06:52:35;;;;;;;21.40;5.77;;;;;;;6.95;100.00;103375.83;1755013;78;935676;-73
2021/03/17 06:55:11;;;;;;;24.98;5.95;;;;;;;7.02;100.00;103384.16;1743547;79;935900;-73
2021/03/17 06:57:45;;;;;;;23.23;5.87;;;;;;;7.01;100.00;103386.09;1755046;78;934732;-73
2021/03/17 07:00:40;;;;;;;24.67;5.30;;;;;;;6.98;100.00;103382.84;1743595;79;936609;-73
2021/03/17 07:03:13;;;;;;;21.27;5.20;;;;;;;6.85;100.00;103380.83;1743481;79;936539;-72
2021/03/17 07:05:45;;;;;;;22.43;5.77;;;;;;;6.96;100.00;103375.30;1754828;79;934622;-72
2021/03/17 07:08:17;;;;;;;19.27;5.97;;;;;;;7.00;100.00;103373.33;1743556;78;935574;-73
2021/03/17 07:10:47;;;;;;;19.73;5.73;;;;;;;7.07;100.00;103372.84;1753572;80;934609;-72
2021/03/17 07:13:17;;;;;;;23.60;5.60;;;;;;;7.11;100.00;103363.61;1739403;79;936771;-73
2021/03/17 07:15:54;;;;;;;20.88;5.62;;;;;;;7.06;100.00;103371.12;1750374;80;934472;-72
2021/03/17 07:18:26;;;;;;;34.03;7.20;;;;;;;6.99;100.00;103361.94;1750309;79;936476;-73
2021/03/17 07:20:58;;;;;;;21.55;6.55;;;;;;;6.97;100.00;103362.68;1739632;80;936617;-73
2021/03/17 07:23:33;;;;;;;22.13;6.07;;;;;;;7.07;100.00;103375.61;1755422;78;936705;-73
2021/03/17 07:26:16;;;;;;;22.62;6.40;;;;;;;7.18;100.00;103394.42;1738829;79;936682;-73
2021/03/17 07:28:54;;;;;;;21.47;6.33;;;;;;;7.19;100.00;103389.72;1750679;80;934766;-73
2021/03/17 07:31:26;;;;;;;25.13;7.50;;;;;;;7.26;100.00;103395.66;1750688;80;936596;-73
2021/03/17 07:33:58;;;;;;;22.67;6.37;;;;;;;7.27;100.00;103408.95;1740896;79;936499;-74
2021/03/17 07:36:40;;;;;;;22.30;5.87;;;;;;;7.36;100.00;103420.16;1756724;78;936836;-72
2021/03/17 07:39:13;;;;;;;19.12;6.28;;;;;;;7.38;100.00;103413.91;1739156;80;936571;-72
2021/03/17 07:41:43;;;;;;;20.17;6.33;;;;;;;7.51;100.00;103415.92;1750703;80;934689;-72
2021/03/17 07:44:14;;;;;;;24.77;6.20;;;;;;;7.55;100.00;103411.69;1739018;80;936631;-72
2021/03/17 07:46:48;;;;;;;23.33;7.23;;;;;;;7.64;100.00;103408.56;1750531;80;934870;-71
2021/03/17 07:49:18;;;;;;;24.03;7.67;;;;;;;7.73;100.00;103403.72;1739044;79;936608;-72
2021/03/17 07:51:51;;;;;;;24.07;6.63;;;;;;;7.67;100.00;103418.36;1750754;79;934702;-72
2021/03/17 07:54:33;;;;;;;19.13;6.50;;;;;;;7.70;100.00;103415.20;1750619;80;936532;-71
2021/03/17 07:57:05;;;;;;;23.83;7.05;;;;;;;7.72;100.00;103422.23;1738880;79;937887;-74
2021/03/17 07:59:35;;;;;;;27.07;7.40;;;;;;;7.79;100.00;103415.34;1750501;78;936742;-71
2021/03/17 08:02:05;;;;;;;30.37;7.53;;;;;;;7.86;100.00;103406.56;1738956;80;936778;-72
2021/03/17 08:04:35;;;;;;;22.30;6.47;;;;;;;7.94;100.00;103414.69;1750530;80;936824;-71
2021/03/17 08:07:06;;;;;;;19.13;5.90;;;;;;;7.96;100.00;103424.19;1738977;79;936691;-72
2021/03/17 08:09:38;;;;;;;22.20;6.90;;;;;;;8.02;100.00;103429.74;1750563;80;936865;-73
2021/03/17 08:12:12;;;;;;;26.77;7.37;;;;;;;8.11;100.00;103435.43;1739255;80;936615;-71
2021/03/17 08:14:43;;;;;;;27.37;7.00;;;;;;;8.12;100.00;103445.98;1750682;80;935177;-71
2021/03/17 08:17:14;;;;;;;24.37;7.20;;;;;;;8.08;100.00;103452.46;1739265;80;936584;-71
2021/03/17 08:19:43;;;;;;;21.97;6.30;;;;;;;8.12;100.00;103463.45;1750668;80;934861;-71
2021/03/17 08:22:13;;;;;;;29.40;7.75;;;;;;;8.17;100.00;103466.98;1739145;80;936634;-72
2021/03/17 08:24:45;;;;;;;24.23;6.80;;;;;;;8.25;100.00;103477.89;1750603;79;934455;-71
2021/03/17 08:27:21;;;;;;;24.63;7.07;;;;;;;8.35;100.00;103486.68;1739226;80;936680;-71
2021/03/17 08:29:57;;;;;;;25.70;7.25;;;;;;;8.42;100.00;103483.95;1750532;80;934666;-72
2021/03/17 08:32:30;;;;;;;25.70;8.07;;;;;;;8.46;100.00;103476.41;1749781;80;935592;-71
2021/03/17 08:35:00;;;;;;;22.43;7.37;;;;;;;8.48;100.00;103429.09;1732994;79;936515;-71
2021/03/17 08:37:53;;;;;;;24.27;8.07;;;;;;;8.63;100.00;103428.41;1750478;80;936731;-71
2021/03/17 08:40:49;;;;;;;26.23;8.57;;;;;;;8.62;100.00;103455.25;1744374;80;936525;-71
2021/03/17 08:43:41;;;;;;;22.97;8.27;;;;;;;8.76;100.00;103458.06;1739080;80;936590;-71
2021/03/17 08:46:13;;;;;;;25.50;8.20;;;;;;;8.87;100.00;103458.82;1738994;80;936520;-73
2021/03/17 08:48:56;;;;;;;23.80;7.67;;;;;;;8.87;100.00;103465.75;1750591;80;934783;-73
2021/03/17 08:52:08;;;;;;;19.27;6.97;;;;;;;8.87;100.00;103467.14;1750530;80;936712;-73
2021/03/17 08:55:13;;;;;;;17.63;7.07;;;;;;;8.91;100.00;103449.87;1750504;80;935748;-72
2021/03/17 08:58:00;;;;;;;23.07;7.40;;;;;;;8.95;100.00;103458.62;1750633;78;934894;-71
2021/03/17 09:00:51;;;;;;;22.13;7.67;;;;;;;8.94;100.00;103448.62;1750455;79;936991;-72
2021/03/17 09:03:38;;;;;;;26.50;9.17;;;;;;;8.95;100.00;103432.28;1738910;79;936769;-71
2021/03/17 09:06:17;;;;;;;25.35;7.55;;;;;;;8.93;100.00;103416.41;1739096;79;936926;-72
2021/03/17 09:08:53;;;;;;;20.03;8.07;;;;;;;8.94;100.00;103417.56;1750503;80;934733;-71
2021/03/17 09:12:00;;;;;;;25.47;8.63;;;;;;;8.97;100.00;103399.67;1750591;79;936678;-71
2021/03/17 09:14:33;;;;;;;18.37;8.00;;;;;;;8.97;100.00;103388.05;1750557;80;936742;-72
2021/03/17 09:17:24;;;;;;;23.07;9.13;;;;;;;9.02;100.00;103376.33;1739028;79;937066;-71
2021/03/17 09:20:14;;;;;;;28.03;9.70;;;;;;;9.04;100.00;103353.38;1750497;80;934552;-73
2021/03/17 09:23:01;;;;;;;29.30;9.27;;;;;;;9.07;100.00;103380.14;1750663;80;934937;-73
2021/03/17 09:25:33;;;;;;;25.47;8.83;;;;;;;9.13;100.00;103403.41;1750603;79;936715;-72
2021/03/17 09:28:06;;;;;;;23.65;8.55;;;;;;;9.19;100.00;103407.25;1739156;79;940561;-72
2021/03/17 09:30:41;;;;;;;25.90;9.67;;;;;;;9.09;100.00;103406.28;1750538;80;936515;-72
2021/03/17 09:33:14;;;;;;;21.17;9.65;;;;;;;9.14;100.00;103414.82;1739245;79;936793;-73
2021/03/17 09:35:50;;;;;;;26.93;10.30;;;;;;;9.23;100.00;103419.62;1750678;80;934729;-72
2021/03/17 09:38:22;;;;;;;27.13;10.17;;;;;;;9.28;100.00;103417.06;1750568;80;938992;-72
2021/03/17 09:40:59;;;;;;;26.67;10.70;;;;;;;9.26;100.00;103410.86;1750477;79;936756;-72
2021/03/17 09:43:33;;;;;;;22.55;10.25;;;;;;;9.16;100.00;103417.39;1750466;80;938922;-72
2021/03/17 09:46:25;;;;;;;27.75;10.68;;;;;;;9.14;100.00;103428.69;1739091;80;941662;-73
2021/03/17 09:48:58;;;;;;;24.40;10.30;;;;;;;9.13;100.00;103424.20;1748702;80;938922;-74
2021/03/17 09:51:31;;;;;;;28.00;11.10;;;;;;;9.07;100.00;103430.05;1737873;79;937673;-71
2021/03/17 09:54:03;;;;;;;25.60;10.60;;;;;;;9.09;100.00;103425.16;1732846;80;938676;-72
2021/03/17 09:56:39;;;;;;;25.20;10.83;;;;;;;9.00;100.00;103423.66;1761058;80;938572;-72
2021/03/17 09:59:35;;;;;;;26.73;11.05;;;;;;;8.96;100.00;103422.38;1749736;79;938644;-72
2021/03/17 10:02:06;;;;;;;26.12;11.48;;;;;;;8.92;100.00;103416.94;1736102;79;944122;-72
2021/03/17 10:04:42;;;;;;;22.87;10.33;;;;;;;8.91;100.00;103407.44;1761412;79;938775;-72
2021/03/17 10:07:13;;;;;;;26.65;10.32;;;;;;;8.86;100.00;103413.61;1749670;79;938794;-72
2021/03/17 10:09:44;;;;;;;27.07;10.53;;;;;;;8.86;100.00;103390.58;1761219;79;936816;-72
2021/03/17 10:12:16;;;;;;;19.67;9.65;;;;;;;8.87;100.00;103393.68;1749753;79;938667;-72
2021/03/17 10:14:47;;;;;;;19.20;9.23;;;;;;;9.02;100.00;103440.95;1743954;80;934727;-71
2021/03/17 10:17:19;;;;;;;16.90;8.57;;;;;;;8.90;100.00;103402.42;1741575;80;936897;-72
2021/03/17 10:19:52;;;;;;;16.77;8.53;;;;;;;8.90;100.00;103386.35;1753177;80;934946;-72
2021/03/17 10:22:24;;;;;;;20.07;8.77;;;;;;;8.85;100.00;103382.83;1753123;80;935536;-72
2021/03/17 10:24:56;;;;;;;18.97;8.40;;;;;;;9.14;100.00;103389.33;1753269;80;934407;-72
2021/03/17 10:27:28;;;;;;;17.97;8.63;;;;;;;9.25;100.00;103393.36;1753129;80;936604;-72
2021/03/17 10:30:03;;;;;;;16.57;9.17;;;;;;;9.28;100.00;103383.78;1741787;80;938606;-72
2021/03/17 10:32:34;;;;;;;18.00;9.00;;;;;;;9.25;100.00;103382.80;1763719;79;936493;-72
2021/03/17 10:35:09;;;;;;;13.53;10.00;;;;;;;9.33;100.00;103371.48;1752287;79;936549;-72
2021/03/17 10:37:40;;;;;;;16.43;8.93;;;;;;;9.24;100.00;103359.75;1763462;79;938625;-72
2021/03/17 10:40:14;;;;;;;16.90;8.85;;;;;;;9.28;100.00;103376.84;1752267;79;936737;-72
2021/03/17 10:42:46;;;;;;;15.57;9.17;;;;;;;9.13;100.00;103379.30;1763720;79;935000;-72
2021/03/17 10:45:20;;;;;;;18.23;9.27;;;;;;;9.26;100.00;103373.42;1752098;79;936635;-72
2021/03/17 10:47:51;;;;;;;17.97;9.90;;;;;;;9.18;100.00;103370.87;1763522;79;934595;-72
2021/03/17 10:50:29;;;;;;;19.03;10.87;;;;;;;9.22;100.00;103367.45;1763703;79;936547;-72
2021/03/17 10:52:59;;;;;;;18.13;10.30;;;;;;;9.20;100.00;103362.64;1752186;79;938819;-71
2021/03/17 10:55:34;;;;;;;19.30;9.30;;;;;;;9.18;100.00;103362.55;1763727;79;938796;-72
2021/03/17 10:58:13;;;;;;;15.58;8.73;;;;;;;9.23;100.00;103358.61;1752243;79;939579;-72
2021/03/17 11:00:44;;;;;;;16.87;10.03;;;;;;;9.32;100.00;103360.09;1763669;79;934637;-72
2021/03/17 11:03:27;;;;;;;20.43;10.60;;;;;;;9.41;100.00;103334.66;1751947;79;938629;-73
2021/03/17 11:06:13;;;;;;;19.93;10.07;;;;;;;9.48;100.00;103314.70;1752077;79;938724;-72
2021/03/17 11:08:45;;;;;;;19.17;10.13;;;;;;;9.60;100.00;103329.59;1763502;79;936786;-72
2021/03/17 11:11:17;;;;;;;17.53;9.20;;;;;;;9.69;100.00;103394.05;1752289;79;938848;-72
2021/03/17 11:13:49;;;;;;;17.35;9.38;;;;;;;9.72;100.00;103350.58;1763729;79;934673;-74
2021/03/17 11:16:29;;;;;;;17.27;9.77;;;;;;;9.90;100.00;103358.20;1752241;79;936664;-74
2021/03/17 11:19:00;;;;;;;22.97;9.63;;;;;;;10.03;100.00;103346.52;1752019;79;936687;-74
2021/03/17 11:21:33;;;;;;;17.73;10.23;;;;;;;10.03;100.00;103349.82;1763644;79;938852;-74
2021/03/17 11:24:05;;;;;;;19.77;10.35;;;;;;;9.73;100.00;103335.64;1752050;79;946566;-74
2021/03/17 11:26:39;;;;;;;19.83;11.60;;;;;;;9.88;100.00;103358.98;1763643;79;938574;-74
2021/03/17 11:29:16;;;;;;;20.50;10.10;;;;;;;9.82;100.00;103358.45;1752191;79;938882;-74
2021/03/17 11:31:48;;;;;;;19.40;10.30;;;;;;;9.82;100.00;103358.45;1763592;79;937134;-74
2021/03/17 11:34:19;;;;;;;19.80;10.27;;;;;;;9.77;100.00;103334.66;1752051;79;938623;-74
2021/03/17 11:36:50;;;;;;;23.07;11.10;;;;;;;9.64;100.00;103368.86;1763582;79;936782;-74
2021/03/17 11:39:21;;;;;;;20.90;10.63;;;;;;;9.80;100.00;103378.09;1763570;79;938557;-73